Time;durP1;ratioP1;P1;durP2;ratioP2;P2;SDS_P1;SDS_P2;PMS_P1;PMS_P2;Temp;Humidity;BMP_temperature;BMP_pressure;BME280_temperature;BME280_humidity;BME280_pressure;Samples;Min_cycle;Max_cycle;Signal;HPM_P1;HPM_P2
2021/12/12 00:00:20;;;;;;;;;24.25;15.75;;;;;9.14;89.66;101926.22;5060824;28;45394;-66
2021/12/12 00:05:23;;;;;;;;;17.50;16.75;;;;;9.11;89.08;101926.25;5061627;28;45415;-66
2021/12/12 00:07:49;;;;;;;;;18.25;14.25;;;;;9.04;89.51;101920.22;5060934;27;46286;-66
2021/12/12 00:10:20;;;;;;;;;17.50;16.25;;;;;9.00;90.00;101915.00;5061348;28;45252;-67
2021/12/12 00:12:50;;;;;;;;;24.50;19.00;;;;;8.96;90.45;101913.28;5060520;28;45483;-65
2021/12/12 00:15:19;;;;;;;;;18.25;14.25;;;;;8.83;90.93;101897.78;5060753;28;45235;-65
2021/12/12 00:17:45;;;;;;;;;21.50;17.50;;;;;8.81;91.64;101903.84;5060003;28;47221;-64
2021/12/12 00:20:14;;;;;;;;;23.25;16.25;;;;;8.77;92.19;101913.31;5061192;28;45945;-65
2021/12/12 00:22:41;;;;;;;;;16.25;15.75;;;;;8.68;91.83;101902.13;5061470;28;45212;-64
2021/12/12 00:25:08;;;;;;;;;21.50;17.50;;;;;8.63;92.55;101902.13;5061072;28;45215;-64
2021/12/12 00:27:34;;;;;;;;;22.25;17.75;;;;;8.57;93.42;101906.44;5061241;28;45449;-64
2021/12/12 00:30:03;;;;;;;;;22.75;17.25;;;;;8.55;93.92;101911.63;5060421;28;45386;-65
2021/12/12 00:32:31;;;;;;;;;20.25;14.75;;;;;8.57;93.69;101904.69;5061137;28;45306;-65
2021/12/12 00:35:00;;;;;;;;;25.75;17.25;;;;;8.60;94.37;101909.88;5061052;28;45378;-64
2021/12/12 00:37:28;;;;;;;;;20.75;19.50;;;;;8.58;94.27;101908.16;5061009;28;46952;-64
2021/12/12 00:39:57;;;;;;;;;22.75;17.00;;;;;8.56;94.58;101913.34;5060049;28;45367;-64
2021/12/12 00:42:31;;;;;;;;;20.00;16.25;;;;;8.58;94.76;101915.94;5042496;28;45549;-64
2021/12/12 00:44:59;;;;;;;;;22.50;17.75;;;;;8.61;95.26;101910.75;5059002;28;45186;-65
2021/12/12 00:47:25;;;;;;;;;20.75;16.75;;;;;8.65;94.80;101912.50;5060046;28;46098;-65
2021/12/12 00:49:52;;;;;;;;;20.00;17.00;;;;;8.65;95.49;101913.34;5059565;28;45253;-65
2021/12/12 00:52:19;;;;;;;;;18.50;15.75;;;;;8.66;95.51;101906.44;5047938;28;45471;-65
2021/12/12 00:54:46;;;;;;;;;23.50;20.50;;;;;8.67;95.61;101906.44;5057005;28;45486;-64
2021/12/12 00:57:16;;;;;;;;;16.75;14.25;;;;;8.65;95.25;101913.34;5059822;28;45272;-65
2021/12/12 00:59:44;;;;;;;;;19.00;16.00;;;;;8.63;95.96;101915.09;5052374;28;45728;-65
2021/12/12 01:02:14;;;;;;;;;22.25;18.75;;;;;8.63;95.86;101906.44;5059758;28;45155;-64
2021/12/12 01:04:43;;;;;;;;;18.00;12.00;;;;;8.60;96.13;101909.88;5058977;28;45448;-64
2021/12/12 01:07:15;;;;;;;;;18.75;15.25;;;;;8.55;96.15;101906.44;5059552;28;47001;-64
2021/12/12 01:09:52;;;;;;;;;20.25;15.75;;;;;8.55;96.08;101901.25;5046862;28;45857;-64
2021/12/12 01:12:23;;;;;;;;;16.25;12.50;;;;;8.56;96.49;101904.72;5040097;28;45295;-64
2021/12/12 01:14:57;;;;;;;;;24.00;17.25;;;;;8.53;96.70;101901.25;5056653;28;45443;-64
2021/12/12 01:17:34;;;;;;;;;17.00;15.75;;;;;8.56;97.10;101897.78;5056247;28;45415;-64
2021/12/12 01:20:28;;;;;;;;;15.25;12.50;;;;;8.57;97.05;101898.66;5057343;28;45450;-64
2021/12/12 01:22:59;;;;;;;;;17.25;12.75;;;;;8.56;97.49;101908.16;5033755;28;45398;-64
2021/12/12 01:25:36;;;;;;;;;16.00;13.25;;;;;8.52;96.92;101903.84;5056177;28;45503;-64
2021/12/12 01:28:03;;;;;;;;;14.00;12.25;;;;;8.49;97.19;101904.72;5056824;28;45536;-64
2021/12/12 01:30:29;;;;;;;;;15.75;13.25;;;;;8.44;97.70;101903.88;5057634;28;45909;-64
2021/12/12 01:32:57;;;;;;;;;16.00;13.50;;;;;8.42;97.86;101905.59;5039733;28;45393;-64
2021/12/12 01:35:25;;;;;;;;;12.50;12.50;;;;;8.44;98.63;101913.38;5056020;28;45386;-64
2021/12/12 01:40:49;;;;;;;;;18.25;14.25;;;;;8.42;98.17;101907.31;5054604;28;45386;-65
2021/12/12 01:43:26;;;;;;;;;9.25;9.00;;;;;8.38;98.48;101902.97;5057461;28;45540;-65
2021/12/12 01:46:00;;;;;;;;;16.50;12.25;;;;;8.39;98.83;101912.47;5058004;28;45385;-65
2021/12/12 01:48:31;;;;;;;;;14.50;11.75;;;;;8.37;98.79;101917.66;5047024;28;46100;-65
2021/12/12 01:51:02;;;;;;;;;13.00;11.00;;;;;8.38;99.15;101910.75;5059014;28;45502;-65
2021/12/12 01:53:30;;;;;;;;;13.25;13.25;;;;;8.42;99.35;101915.97;5059931;28;45237;-65
2021/12/12 01:56:00;;;;;;;;;13.25;11.25;;;;;8.47;99.58;101918.53;5059928;28;45265;-65
2021/12/12 01:58:29;;;;;;;;;13.00;13.00;;;;;8.51;99.69;101920.25;5059253;28;45432;-65
2021/12/12 02:01:17;;;;;;;;;15.75;11.50;;;;;8.52;99.49;101928.03;5059543;28;45441;-65
2021/12/12 02:03:47;;;;;;;;;10.00;8.00;;;;;8.52;99.81;101929.75;5058537;28;45469;-65
2021/12/12 02:06:16;;;;;;;;;13.50;11.25;;;;;8.52;99.68;101938.41;5059443;28;45220;-64
2021/12/12 02:08:41;;;;;;;;;9.75;9.25;;;;;8.52;99.80;101937.53;5059526;28;45396;-65
2021/12/12 02:11:13;;;;;;;;;10.25;9.75;;;;;8.53;99.47;101941.84;5059441;28;45252;-65
2021/12/12 02:13:42;;;;;;;;;12.25;9.25;;;;;8.54;99.71;101939.25;5059381;28;45239;-64
2021/12/12 02:16:09;;;;;;;;;12.00;11.00;;;;;8.58;99.62;101937.53;5059373;28;45322;-64
2021/12/12 02:18:38;;;;;;;;;11.50;10.00;;;;;8.61;99.83;101942.72;5059290;28;45551;-64
2021/12/12 02:21:22;;;;;;;;;11.75;9.00;;;;;8.65;99.63;101949.63;5059542;28;45309;-64
2021/12/12 02:37:26;;;;;;;;;12.50;10.75;;;;;8.72;99.60;101945.31;5061642;28;45508;-65
2021/12/12 02:39:52;;;;;;;;;12.00;9.25;;;;;8.75;99.67;101953.06;5061846;28;45981;-65
2021/12/12 02:42:21;;;;;;;;;9.50;8.00;;;;;8.73;99.72;101942.72;5062504;28;45371;-65
2021/12/12 02:44:56;;;;;;;;;5.75;5.75;;;;;8.79;99.82;101950.47;5057408;28;45398;-65
2021/12/12 02:47:32;;;;;;;;;9.50;7.75;;;;;8.81;99.77;101947.91;5054021;28;45403;-65
2021/12/12 02:50:09;;;;;;;;;6.75;6.75;;;;;8.84;99.97;101953.94;5060998;28;46364;-65
2021/12/12 02:52:36;;;;;;;;;6.25;6.25;;;;;8.83;99.97;101956.53;5047042;28;45777;-65
2021/12/12 02:55:09;;;;;;;;;10.50;8.50;;;;;8.89;100.00;101958.25;5061344;28;45514;-65
2021/12/12 02:57:35;;;;;;;;;8.50;7.00;;;;;8.87;99.97;101944.44;5061381;28;45445;-65
2021/12/12 03:00:00;;;;;;;;;8.50;6.75;;;;;8.93;100.00;101959.97;5055473;28;46104;-64
2021/12/12 03:02:30;;;;;;;;;9.25;7.75;;;;;8.92;100.00;101966.03;5061075;28;45178;-65
2021/12/12 03:05:00;;;;;;;;;8.75;7.75;;;;;8.88;99.97;101961.72;5062379;28;45429;-65
2021/12/12 03:07:26;;;;;;;;;9.00;6.50;;;;;8.89;100.00;101968.63;5061155;28;45440;-64
2021/12/12 03:09:56;;;;;;;;;8.25;8.25;;;;;8.91;100.00;101961.72;5061977;28;45350;-65
2021/12/12 03:12:31;;;;;;;;;9.00;7.00;;;;;8.95;100.00;101964.28;5060925;28;45308;-65
2021/12/12 03:15:18;;;;;;;;;12.75;8.50;;;;;8.99;100.00;101967.72;5061564;28;45328;-65
2021/12/12 03:17:47;;;;;;;;;6.00;4.50;;;;;8.99;100.00;101960.81;5037165;28;45435;-63
2021/12/12 03:20:32;;;;;;;;;9.50;8.00;;;;;9.02;100.00;101963.44;5060739;28;47684;-63
2021/12/12 03:23:03;;;;;;;;;7.00;7.00;;;;;9.01;100.00;101966.00;5057534;28;45786;-65
2021/12/12 03:25:33;;;;;;;;;5.50;4.25;;;;;9.01;100.00;101963.41;5061055;28;45193;-65
2021/12/12 03:27:59;;;;;;;;;7.25;3.00;;;;;9.01;100.00;101964.31;5043361;28;45347;-67
2021/12/12 03:30:24;;;;;;;;;5.25;3.50;;;;;9.00;99.77;101956.50;5060469;28;45383;-66
2021/12/12 03:32:50;;;;;;;;;3.00;3.00;;;;;9.03;99.99;101959.97;5061748;28;45272;-67
2021/12/12 03:35:15;;;;;;;;;6.00;6.00;;;;;9.06;100.00;101959.97;5060821;28;45440;-66
2021/12/12 03:37:42;;;;;;;;;6.50;6.25;;;;;9.07;99.98;101953.03;5061573;28;45269;-69
2021/12/12 03:40:17;;;;;;;;;6.75;5.00;;;;;9.11;99.87;101949.56;5060435;28;46342;-68
2021/12/12 03:42:45;;;;;;;;;8.00;5.00;;;;;9.15;100.00;101959.06;5060865;28;45815;-69
2021/12/12 03:45:12;;;;;;;;;7.25;6.00;;;;;9.17;100.00;101957.34;5048645;28;45309;-69
2021/12/12 03:47:46;;;;;;;;;8.25;4.75;;;;;9.21;100.00;101953.88;5059785;28;45439;-67
2021/12/12 03:50:17;;;;;;;;;6.50;5.00;;;;;9.21;100.00;101964.25;5060036;28;46391;-68
2021/12/12 03:52:43;;;;;;;;;8.00;6.50;;;;;9.23;100.00;101959.94;5045417;28;45408;-66
2021/12/12 03:55:10;;;;;;;;;8.25;7.50;;;;;9.25;100.00;101962.53;5061470;28;45240;-67
2021/12/12 03:57:36;;;;;;;;;7.50;6.00;;;;;9.29;99.65;101967.69;5060282;28;45531;-67
2021/12/12 04:00:07;;;;;;;;;9.00;7.00;;;;;9.34;100.00;101965.94;5054819;28;46194;-65
2021/12/12 04:02:33;;;;;;;;;8.00;7.25;;;;;9.36;99.68;101964.19;5060326;28;45283;-66
2021/12/12 04:04:59;;;;;;;;;7.50;6.25;;;;;9.38;99.65;101961.59;5061382;28;45224;-66
2021/12/12 04:07:28;;;;;;;;;7.00;7.00;;;;;9.43;99.40;101963.34;5060404;28;45177;-67
2021/12/12 04:09:55;;;;;;;;;9.00;6.00;;;;;9.44;100.00;101959.88;5060918;28;45613;-65
2021/12/12 04:12:22;;;;;;;;;11.50;8.00;;;;;9.48;99.57;101967.63;5060037;28;45284;-65
2021/12/12 04:14:49;;;;;;;;;9.50;9.00;;;;;9.48;99.68;101965.91;5060465;28;45388;-65
2021/12/12 04:17:18;;;;;;;;;7.50;6.50;;;;;9.52;99.64;101978.00;5060161;28;45606;-65
2021/12/12 04:19:46;;;;;;;;;7.00;6.00;;;;;9.54;99.46;101976.25;5060112;28;46220;-65
2021/12/12 04:22:12;;;;;;;;;8.25;7.75;;;;;9.57;99.16;101977.97;5055807;28;45313;-65
2021/12/12 04:24:42;;;;;;;;;8.75;7.50;;;;;9.60;99.00;101981.41;5061021;28;45233;-66
2021/12/12 04:27:08;;;;;;;;;8.50;8.50;;;;;9.59;99.09;101976.22;5059762;28;45245;-65
2021/12/12 04:29:40;;;;;;;;;15.25;11.50;;;;;9.61;99.16;101979.69;5059912;28;46318;-66
2021/12/12 04:32:10;;;;;;;;;10.75;9.25;;;;;9.63;99.35;101983.16;5060091;28;45298;-66
2021/12/12 04:34:39;;;;;;;;;10.50;10.25;;;;;9.63;99.28;101984.03;5060126;28;45355;-67
2021/12/12 04:37:08;;;;;;;;;10.50;8.00;;;;;9.64;99.15;101984.88;5060632;28;45240;-66
2021/12/12 04:39:38;;;;;;;;;9.50;8.50;;;;;9.66;98.95;101994.41;5059539;28;45518;-65
2021/12/12 04:42:09;;;;;;;;;11.75;10.25;;;;;9.61;99.35;101987.47;5060549;28;45731;-65
2021/12/12 04:44:37;;;;;;;;;16.75;8.75;;;;;9.60;99.50;101990.94;5059415;28;45366;-65
2021/12/12 04:50:38;;;;;;;;;17.50;12.00;;;;;9.66;99.27;101983.16;5036438;28;45791;-64
2021/12/12 04:53:24;;;;;;;;;15.50;12.25;;;;;9.63;99.26;101985.75;4964704;28;45759;-65
2021/12/12 04:55:56;;;;;;;;;17.25;11.50;;;;;9.65;99.57;101997.84;5054382;28;45228;-66
2021/12/12 04:58:27;;;;;;;;;14.25;12.00;;;;;9.66;99.29;101997.00;5047837;28;45308;-67
2021/12/12 05:01:09;;;;;;;;;15.75;12.25;;;;;9.68;98.91;102004.78;5048986;28;46250;-66
2021/12/12 05:04:00;;;;;;;;;17.25;13.00;;;;;9.70;99.81;102003.88;5059303;28;45352;-66
2021/12/12 05:06:36;;;;;;;;;13.50;12.00;;;;;9.75;99.30;102006.47;5027106;28;45368;-65
2021/12/12 05:09:19;;;;;;;;;11.75;9.25;;;;;9.77;99.20;102003.00;5058648;28;45423;-65
2021/12/12 05:11:54;;;;;;;;;11.00;11.00;;;;;9.79;99.06;102009.91;5060001;28;45415;-66
2021/12/12 05:14:23;;;;;;;;;12.75;11.25;;;;;9.81;99.69;102010.75;5058464;28;45780;-67
2021/12/12 05:17:01;;;;;;;;;13.50;11.25;;;;;9.83;99.52;102006.44;5059854;28;45434;-67
2021/12/12 05:19:30;;;;;;;;;16.75;13.50;;;;;9.85;99.39;102009.91;5036891;28;45460;-65
2021/12/12 05:22:03;;;;;;;;;13.75;13.25;;;;;9.85;99.43;102009.91;5052622;28;45436;-66
2021/12/12 05:24:31;;;;;;;;;15.75;12.75;;;;;9.82;99.21;102010.78;5040114;28;45900;-66
2021/12/12 05:27:03;;;;;;;;;19.00;12.00;;;;;9.84;99.29;102011.63;5024152;28;45368;-66
2021/12/12 05:29:53;;;;;;;;;12.25;9.25;;;;;9.82;99.32;102023.75;5040606;28;45781;-65
2021/12/12 05:32:21;;;;;;;;;17.75;12.75;;;;;9.79;99.12;102022.88;5017241;28;47487;-65
2021/12/12 05:34:50;;;;;;;;;21.75;18.25;;;;;9.78;99.79;102027.22;5042585;28;46194;-67
2021/12/12 05:37:19;;;;;;;;;14.75;11.75;;;;;9.74;99.87;102025.50;5041806;28;45561;-66
2021/12/12 05:39:45;;;;;;;;;14.25;11.25;;;;;9.77;99.34;102022.88;5023400;28;45602;-66
2021/12/12 05:42:13;;;;;;;;;15.50;13.50;;;;;9.81;99.50;102022.03;5036552;28;45343;-65
2021/12/12 05:44:40;;;;;;;;;14.50;12.25;;;;;9.83;99.88;102024.63;5026900;28;45375;-66
2021/12/12 05:47:08;;;;;;;;;16.00;11.50;;;;;9.81;99.89;102019.44;5038950;28;45428;-67
2021/12/12 05:49:37;;;;;;;;;12.75;12.25;;;;;9.87;99.83;102027.19;5036161;28;45278;-64
2021/12/12 05:52:07;;;;;;;;;18.00;15.00;;;;;9.90;99.65;102029.78;5038978;28;45335;-63
2021/12/12 05:54:33;;;;;;;;;14.25;13.25;;;;;9.92;100.00;102025.44;5039805;28;45546;-64
2021/12/12 05:57:01;;;;;;;;;13.50;13.50;;;;;9.92;99.74;102029.78;5022059;28;45409;-63
2021/12/12 05:59:27;;;;;;;;;19.00;13.50;;;;;9.93;99.82;102028.91;5038741;28;45597;-63
2021/12/12 06:01:55;;;;;;;;;17.25;10.25;;;;;9.94;99.86;102035.81;5043335;28;46191;-63
2021/12/12 06:04:20;;;;;;;;;21.75;13.75;;;;;9.92;99.87;102025.44;5042518;28;45315;-64
2021/12/12 06:06:47;;;;;;;;;14.00;13.50;;;;;9.94;99.63;102033.22;5039963;28;45711;-66
2021/12/12 06:09:15;;;;;;;;;16.00;10.25;;;;;9.94;99.74;102048.78;5039358;28;45517;-67
2021/12/12 06:11:43;;;;;;;;;14.00;14.00;;;;;9.95;99.89;102058.31;5038932;28;45263;-68
2021/12/12 06:14:09;;;;;;;;;15.00;12.50;;;;;9.95;99.91;102056.59;5038896;28;45954;-66
2021/12/12 06:16:37;;;;;;;;;16.00;13.75;;;;;9.97;99.74;102057.44;5021975;28;45607;-68
2021/12/12 06:19:17;;;;;;;;;12.75;10.75;;;;;10.01;99.94;102061.78;5039392;28;45418;-68
2021/12/12 06:21:43;;;;;;;;;15.25;13.25;;;;;10.00;99.94;102064.34;5039114;28;45296;-71
2021/12/12 06:24:09;;;;;;;;;14.75;12.75;;;;;9.96;99.98;102071.28;5039570;28;45700;-69
2021/12/12 06:26:36;;;;;;;;;13.00;10.75;;;;;9.91;99.61;102069.59;5039542;28;45282;-71
2021/12/12 06:29:03;;;;;;;;;14.50;12.75;;;;;9.93;100.00;102071.31;5038886;28;45458;-69
2021/12/12 06:31:28;;;;;;;;;13.00;8.50;;;;;9.92;100.00;102066.97;5039259;28;45412;-69
2021/12/12 06:33:55;;;;;;;;;10.50;8.00;;;;;9.88;99.88;102073.06;5039584;28;45333;-67
2021/12/12 06:36:20;;;;;;;;;14.00;11.00;;;;;9.83;100.00;102076.56;5039308;28;45227;-66
2021/12/12 06:38:51;;;;;;;;;12.25;9.25;;;;;9.82;100.00;102080.03;5039912;28;45265;-66
2021/12/12 06:41:18;;;;;;;;;9.00;6.25;;;;;9.79;100.00;102086.06;5059265;28;45385;-67
2021/12/12 06:43:44;;;;;;;;;16.50;9.00;;;;;9.76;100.00;102086.94;5059223;28;45367;-66
2021/12/12 06:46:10;;;;;;;;;13.00;10.50;;;;;9.76;100.00;102081.75;5059065;28;45496;-70
2021/12/12 06:48:39;;;;;;;;;10.50;10.00;;;;;9.81;100.00;102084.34;5059489;28;45282;-70
2021/12/12 06:51:04;;;;;;;;;10.00;10.00;;;;;9.79;100.00;102075.66;5057750;28;45438;-68
2021/12/12 06:53:33;;;;;;;;;18.00;12.75;;;;;9.76;100.00;102093.84;5059380;28;45271;-67
2021/12/12 06:56:00;;;;;;;;;13.25;12.25;;;;;9.74;100.00;102090.41;5057772;28;45327;-72
2021/12/12 06:58:29;;;;;;;;;10.25;8.00;;;;;9.73;100.00;102092.13;5058888;28;45454;-69
2021/12/12 07:01:20;;;;;;;;;14.50;10.50;;;;;9.74;100.00;102105.97;5058615;28;46174;-64
2021/12/12 07:03:47;;;;;;;;;18.00;13.00;;;;;9.71;100.00;102106.00;5059214;28;45726;-74
2021/12/12 07:06:17;;;;;;;;;10.25;10.00;;;;;9.75;100.00;102105.09;5059106;28;45290;-72
2021/12/12 07:08:43;;;;;;;;;15.25;11.25;;;;;9.80;100.00;102113.75;5059061;28;45337;-73
2021/12/12 07:11:08;;;;;;;;;16.25;13.50;;;;;9.88;100.00;102116.34;5058935;28;45281;-72
2021/12/12 07:13:35;;;;;;;;;11.75;9.75;;;;;9.91;100.00;102117.19;5058699;28;45298;-68
2021/12/12 07:16:03;;;;;;;;;15.25;12.25;;;;;9.95;100.00;102116.31;5058716;28;45274;-69
2021/12/12 07:18:33;;;;;;;;;16.00;9.75;;;;;9.94;100.00;102117.19;5058996;28;45470;-69
2021/12/12 07:21:03;;;;;;;;;13.50;9.00;;;;;9.88;100.00;102117.22;5058704;28;46245;-68
2021/12/12 07:23:29;;;;;;;;;12.00;9.50;;;;;9.86;100.00;102115.50;5060876;28;45314;-67
2021/12/12 07:25:59;;;;;;;;;13.25;11.25;;;;;9.82;100.00;102122.44;5062602;28;45317;-68
2021/12/12 07:28:25;;;;;;;;;10.50;8.00;;;;;9.87;100.00;102123.28;5061967;28;45297;-67
2021/12/12 07:30:51;;;;;;;;;9.25;9.25;;;;;9.91;100.00;102124.13;5061921;28;45299;-68
2021/12/12 07:33:18;;;;;;;;;12.75;11.00;;;;;9.90;100.00;102123.25;5060728;28;45598;-67
2021/12/12 07:35:44;;;;;;;;;13.75;9.00;;;;;9.90;100.00;102125.84;5062562;28;45454;-67
2021/12/12 07:38:14;;;;;;;;;15.50;12.00;;;;;9.89;100.00;102124.13;5062024;28;45477;-69
2021/12/12 07:40:41;;;;;;;;;15.25;10.25;;;;;9.89;100.00;102124.13;5061789;28;45411;-67
2021/12/12 07:43:06;;;;;;;;;12.50;8.75;;;;;9.88;100.00;102124.13;5061593;28;45469;-67
2021/12/12 07:45:34;;;;;;;;;11.75;10.25;;;;;9.92;100.00;102131.03;5062133;28;45291;-67
2021/12/12 07:48:00;;;;;;;;;8.00;4.00;;;;;9.91;100.00;102124.13;5061879;28;45268;-69
2021/12/12 07:50:27;;;;;;;;;11.50;8.75;;;;;9.96;100.00;102131.03;5061704;28;46571;-69
2021/12/12 07:52:53;;;;;;;;;10.75;9.00;;;;;9.96;100.00;102136.22;5060050;28;45451;-70
2021/12/12 07:55:19;;;;;;;;;12.50;11.00;;;;;9.98;100.00;102133.63;5061901;28;45303;-70
2021/12/12 07:57:45;;;;;;;;;12.00;8.50;;;;;9.98;100.00;102134.47;5061452;28;45324;-70
2021/12/12 08:00:16;;;;;;;;;34.00;29.50;;;;;10.02;100.00;102141.41;5061112;28;45407;-69
2021/12/12 08:02:42;;;;;;;;;72.50;50.25;;;;;10.02;100.00;102136.22;5061418;28;45297;-67
2021/12/12 08:05:11;;;;;;;;;12.00;10.75;;;;;10.09;100.00;102146.59;5060571;28;45290;-69
2021/12/12 08:07:40;;;;;;;;;12.00;9.00;;;;;10.11;100.00;102140.50;5061379;28;45260;-68
2021/12/12 08:10:08;;;;;;;;;10.75;9.00;;;;;10.10;100.00;102138.78;5061466;28;46410;-68
2021/12/12 08:12:33;;;;;;;;;11.50;8.50;;;;;10.11;100.00;102142.25;5061165;28;45287;-69
2021/12/12 08:15:06;;;;;;;;;14.25;10.50;;;;;10.14;100.00;102145.69;5061328;28;45373;-69
2021/12/12 08:17:32;;;;;;;;;13.25;8.50;;;;;10.22;100.00;102149.19;5061207;28;45763;-68
2021/12/12 08:20:00;;;;;;;;;13.00;9.00;;;;;10.29;100.00;102152.59;5061420;28;46262;-65
2021/12/12 08:22:27;;;;;;;;;10.00;7.25;;;;;10.31;100.00;102153.47;5060883;28;45287;-67
2021/12/12 08:24:55;;;;;;;;;9.25;7.75;;;;;10.30;100.00;102150.00;5061412;28;45260;-66
2021/12/12 08:27:20;;;;;;;;;8.50;8.50;;;;;10.33;100.00;102157.78;5061089;28;45322;-66
2021/12/12 08:29:46;;;;;;;;;9.75;8.50;;;;;10.40;100.00;102158.63;5060739;28;45268;-65
2021/12/12 08:32:14;;;;;;;;;11.75;9.00;;;;;10.44;100.00;102160.34;5061221;28;45420;-66
2021/12/12 08:34:39;;;;;;;;;9.25;8.00;;;;;10.43;100.00;102161.22;5060504;28;45231;-65
2021/12/12 08:37:07;;;;;;;;;8.25;8.00;;;;;10.46;100.00;102163.81;5060946;28;45232;-69
2021/12/12 08:39:33;;;;;;;;;12.75;8.50;;;;;10.44;100.00;102160.34;5060622;28;45197;-69
2021/12/12 08:42:00;;;;;;;;;7.75;6.50;;;;;10.43;100.00;102162.97;5060649;28;45300;-69
2021/12/12 08:44:28;;;;;;;;;8.00;7.00;;;;;10.41;100.00;102162.97;5060035;28;45313;-69
2021/12/12 08:46:56;;;;;;;;;9.50;7.25;;;;;10.39;100.00;102174.22;5060723;28;45261;-70
2021/12/12 08:49:26;;;;;;;;;9.00;7.25;;;;;10.34;100.00;102176.84;5060391;28;46326;-69
2021/12/12 08:52:00;;;;;;;;;10.25;6.50;;;;;10.34;100.00;102171.63;5059270;28;45493;-69
2021/12/12 08:54:28;;;;;;;;;9.75;9.00;;;;;10.34;100.00;102172.50;5060861;28;45359;-69
2021/12/12 08:57:05;;;;;;;;;8.50;8.00;;;;;10.41;100.00;102175.06;5060938;28;45375;-69
2021/12/12 08:59:36;;;;;;;;;8.75;5.50;;;;;10.49;100.00;102174.19;5059147;28;46214;-67
2021/12/12 09:02:07;;;;;;;;;15.25;13.75;;;;;10.60;100.00;102177.59;5060701;28;45323;-66
2021/12/12 09:04:52;;;;;;;;;10.75;7.25;;;;;10.68;100.00;102174.09;5060780;28;45306;-64
2021/12/12 09:07:22;;;;;;;;;17.75;12.50;;;;;10.76;100.00;102178.38;5060706;28;45248;-65
2021/12/12 09:09:59;;;;;;;;;9.50;8.25;;;;;10.74;100.00;102185.31;5060557;28;46280;-67
2021/12/12 09:12:29;;;;;;;;;9.50;9.00;;;;;10.68;100.00;102190.56;5060147;28;45340;-65
2021/12/12 09:15:19;;;;;;;;;8.75;7.25;;;;;10.72;100.00;102188.81;5060511;28;45418;-65
2021/12/12 09:17:49;;;;;;;;;11.50;9.00;;;;;10.74;100.00;102187.06;5048375;28;45498;-64
2021/12/12 09:20:24;;;;;;;;;8.00;6.50;;;;;10.79;100.00;102191.38;5056790;28;45437;-64
2021/12/12 09:22:59;;;;;;;;;9.25;6.50;;;;;10.90;100.00;102193.91;5053079;28;45811;-65
2021/12/12 09:25:43;;;;;;;;;7.50;7.50;;;;;10.96;100.00;102196.47;5056561;28;45441;-63
2021/12/12 09:28:12;;;;;;;;;10.00;10.00;;;;;11.09;100.00;102205.09;5055289;28;45222;-63
2021/12/12 09:30:38;;;;;;;;;10.50;8.50;;;;;11.09;99.80;102203.34;5053546;28;46227;-63
2021/12/12 09:33:20;;;;;;;;;9.25;7.00;;;;;11.09;99.58;102202.47;5056722;28;46319;-63
2021/12/12 09:35:57;;;;;;;;;8.00;8.00;;;;;11.05;100.00;102198.19;5055157;28;45299;-63
2021/12/12 09:38:40;;;;;;;;;7.50;6.50;;;;;11.02;100.00;102196.47;5055490;28;45416;-63
2021/12/12 09:41:23;;;;;;;;;7.50;7.00;;;;;11.01;100.00;102205.09;5058511;28;45564;-63
2021/12/12 09:44:19;;;;;;;;;27.25;23.75;;;;;11.02;100.00;102203.41;5059217;28;45759;-64
2021/12/12 09:52:55;;;;;;;;;10.00;9.00;;;;;11.22;100.00;102198.94;5057109;28;45787;-64
2021/12/12 09:55:41;;;;;;;;;8.50;8.50;;;;;11.31;100.00;102198.88;5048901;28;46726;-64
2021/12/12 09:58:29;;;;;;;;;10.00;8.25;;;;;11.46;100.00;102205.69;5059482;28;45584;-62
2021/12/12 10:01:03;;;;;;;;;11.00;8.25;;;;;11.55;100.00;102208.22;5059593;28;45245;-63
2021/12/12 10:03:37;;;;;;;;;17.50;15.25;;;;;11.64;100.00;102200.34;5066889;28;46210;-65
2021/12/12 10:06:16;;;;;;;;;13.00;10.00;;;;;11.72;99.91;102197.66;5059620;28;45313;-64
2021/12/12 10:08:53;;;;;;;;;15.75;11.50;;;;;11.80;99.48;102204.56;5059791;28;45244;-64
2021/12/12 10:11:32;;;;;;;;;13.50;11.50;;;;;11.84;99.69;102198.47;5047343;28;45520;-65
